Ocean Navigator — WSC2552 — position and weather

sailwx.info

Track history (hours):
 
Tides and Currents Weather Stations Pressure Air Temp Water Temp Dewpoint Dewpoint Depression Visibility Wind Speed Wind Dir Waves Ship Positions

Ocean Navigator

More information available from US FCC via Universal Licensing System and Coast Guard Vessel Documentation Center.

Last reported at 2014-Jul-26 04:34 UTC. Time now 2014-Jul-26 05:11 UTC.
Position N 47°42' W 122°27'.

MMSI: 366358000.

Date/timePositionNaut miles runAvg speedWind from/ knotsBaromVisibWave heightAir tempDewpointWater temp
2014-Jul-26 04:34N 47°42' W 122°27'013.0
2014-Jul-26 04:33N 47°42' W 122°27'7 7.1
2014-Jul-26 03:33N 47°36' W 122°22'0 0.0
2014-Jul-26 03:33N 47°36' W 122°22'2 2.5
2014-Jul-26 02:33N 47°33' W 122°21'0 0.0
2014-Jul-26 02:33N 47°33' W 122°21'0 0.0
2014-Jul-26 01:33N 47°33' W 122°21'0 0.0
2014-Jul-26 01:33N 47°33' W 122°21'0 0.0
2014-Jul-26 00:33N 47°33' W 122°21'0 0.0
2014-Jul-26 00:32N 47°33' W 122°21'0 0.0
2014-Jul-25 23:33N 47°33' W 122°21'0 0.0
2014-Jul-25 23:32N 47°33' W 122°21'1 0.5
2014-Jul-25 22:33N 47°34' W 122°21'0 4.9
2014-Jul-25 22:27N 47°34' W 122°21'7 7.8
2014-Jul-25 21:33N 47°41' W 122°25'0 7.9
2014-Jul-25 21:32N 47°40' W 122°25'2 2.2
2014-Jul-25 20:33N 47°39' W 122°22'0 0.0
2014-Jul-25 20:32N 47°39' W 122°22'0 0.0
2014-Jul-25 10:08N 47°39' W 122°22'2 3.8
2014-Jul-25 09:39N 47°40' W 122°24'1 7.3
2014-Jul-25 09:33N 47°41' W 122°25'0 0.0
2014-Jul-25 09:33N 47°41' W 122°25'8 7.8
2014-Jul-25 08:33N 47°33' W 122°21'0 0.0
2014-Jul-25 08:33N 47°33' W 122°21'1 1.3
2014-Jul-25 07:33N 47°34' W 122°21'0 0.0
2014-Jul-25 07:33N 47°34' W 122°21'4 5.0
2014-Jul-25 06:43N 47°38' W 122°25'1 9.2
2014-Jul-25 06:33N 47°39' W 122°27'8 8.4
2014-Jul-25 05:33N 47°47' W 122°27'0 7.4
2014-Jul-25 05:33N 47°47' W 122°27'8 8.6
2014-Jul-25 04:33N 47°55' W 122°31'8 7.6
2014-Jul-25 03:28N 48°01' W 122°39'15 7.6
2014-Jul-25 01:29N 48°15' W 122°48'8 8.8
2014-Jul-25 00:33N 48°23' W 122°45'7 7.5
2014-Jul-24 23:33N 48°31' W 122°44'6 5.6
2014-Jul-24 22:34N 48°36' W 122°45'6 5.9
2014-Jul-24 21:33N 48°42' W 122°45'8 7.5
2014-Jul-24 20:33N 48°47' W 122°53'8 8.4
2014-Jul-24 19:33N 48°52' W 123°04'9 8.7
2014-Jul-24 18:33N 48°57' W 123°14'9 9.3
2014-Jul-24 17:33N 49°03' W 123°25'9 9.0
2014-Jul-24 16:33N 49°10' W 123°35'10 9.7
2014-Jul-24 15:33N 49°16' W 123°46'10 9.6
2014-Jul-24 14:33N 49°22' W 123°57'9 9.1
2014-Jul-24 13:33N 49°28' W 124°08'8 8.4
2014-Jul-24 12:33N 49°33' W 124°19'8 8.3
2014-Jul-24 11:33N 49°37' W 124°29'8 8.0
2014-Jul-24 10:33N 49°42' W 124°39'8 8.0
2014-Jul-24 09:33N 49°47' W 124°49'8 8.1
2014-Jul-24 08:32N 49°52' W 124°59'8 8.0
2014-Jul-24 07:33N 49°57' W 125°08'10 8.8
2014-Jul-24 06:26N 50°05' W 125°17'46 6.4
2014-Jul-23 23:15N 50°29' W 126°18'6 8.9
2014-Jul-23 22:32N 50°30' W 126°28'11 8.6
2014-Jul-23 21:14N 50°33' W 126°45'6 8.8
2014-Jul-23 20:30N 50°39' W 126°49'8 8.4
2014-Jul-23 19:33N 50°43' W 126°60'9 9.4
2014-Jul-23 18:33N 50°48' W 127°13'10 9.5
2014-Jul-23 17:33N 50°54' W 127°24'10 9.6
2014-Jul-23 16:33N 51°00' W 127°36'9 8.5
2014-Jul-23 15:33N 51°06' W 127°45'18 8.8
2014-Jul-23 13:29N 51°22' W 127°59'187 8.5
2014-Jul-22 15:33N 54°08' W 130°24'9 8.6
2014-Jul-22 14:33N 54°15' W 130°32'9 9.0
2014-Jul-22 13:33N 54°24' W 130°38'10 9.1
2014-Jul-22 12:30N 54°33' W 130°43'  
2014-Jul-19 06:07N 58°15' W 135°21'4 7.5
2014-Jul-19 05:33N 58°19' W 135°24'1 0.1
2014-Jul-18 19:28N 58°20' W 135°26'5 5.2
2014-Jul-18 18:26N 58°15' W 135°29'  
Track history (hours):
 
Tides and Currents Weather Stations Pressure Air Temp Water Temp Dewpoint Dewpoint Depression Visibility Wind Speed Wind Dir Waves Ship Positions

Ocean Navigator

More information available from US FCC via Universal Licensing System and Coast Guard Vessel Documentation Center.

Last reported at 2014-Jul-26 04:34 UTC. Time now 2014-Jul-26 05:11 UTC.
Position N 47°42' W 122°27'.

MMSI: 366358000.

Date/timePositionNaut miles runAvg speedWind from/ knotsBaromVisibWave heightAir tempDewpointWater temp
2014-Jul-26 04:34N 47°42' W 122°27'013.0
2014-Jul-26 04:33N 47°42' W 122°27'7 7.1
2014-Jul-26 03:33N 47°36' W 122°22'0 0.0
2014-Jul-26 03:33N 47°36' W 122°22'2 2.5
2014-Jul-26 02:33N 47°33' W 122°21'0 0.0
2014-Jul-26 02:33N 47°33' W 122°21'0 0.0
2014-Jul-26 01:33N 47°33' W 122°21'0 0.0
2014-Jul-26 01:33N 47°33' W 122°21'0 0.0
2014-Jul-26 00:33N 47°33' W 122°21'0 0.0
2014-Jul-26 00:32N 47°33' W 122°21'0 0.0
2014-Jul-25 23:33N 47°33' W 122°21'0 0.0
2014-Jul-25 23:32N 47°33' W 122°21'1 0.5
2014-Jul-25 22:33N 47°34' W 122°21'0 4.9
2014-Jul-25 22:27N 47°34' W 122°21'7 7.8
2014-Jul-25 21:33N 47°41' W 122°25'0 7.9
2014-Jul-25 21:32N 47°40' W 122°25'2 2.2
2014-Jul-25 20:33N 47°39' W 122°22'0 0.0
2014-Jul-25 20:32N 47°39' W 122°22'0 0.0
2014-Jul-25 10:08N 47°39' W 122°22'2 3.8
2014-Jul-25 09:39N 47°40' W 122°24'1 7.3
2014-Jul-25 09:33N 47°41' W 122°25'0 0.0
2014-Jul-25 09:33N 47°41' W 122°25'8 7.8
2014-Jul-25 08:33N 47°33' W 122°21'0 0.0
2014-Jul-25 08:33N 47°33' W 122°21'1 1.3
2014-Jul-25 07:33N 47°34' W 122°21'0 0.0
2014-Jul-25 07:33N 47°34' W 122°21'4 5.0
2014-Jul-25 06:43N 47°38' W 122°25'1 9.2
2014-Jul-25 06:33N 47°39' W 122°27'8 8.4
2014-Jul-25 05:33N 47°47' W 122°27'0 7.4
2014-Jul-25 05:33N 47°47' W 122°27'8 8.6
2014-Jul-25 04:33N 47°55' W 122°31'8 7.6
2014-Jul-25 03:28N 48°01' W 122°39'15 7.6
2014-Jul-25 01:29N 48°15' W 122°48'8 8.8
2014-Jul-25 00:33N 48°23' W 122°45'7 7.5
2014-Jul-24 23:33N 48°31' W 122°44'6 5.6
2014-Jul-24 22:34N 48°36' W 122°45'6 5.9
2014-Jul-24 21:33N 48°42' W 122°45'8 7.5
2014-Jul-24 20:33N 48°47' W 122°53'8 8.4
2014-Jul-24 19:33N 48°52' W 123°04'9 8.7
2014-Jul-24 18:33N 48°57' W 123°14'9 9.3
2014-Jul-24 17:33N 49°03' W 123°25'9 9.0
2014-Jul-24 16:33N 49°10' W 123°35'10 9.7
2014-Jul-24 15:33N 49°16' W 123°46'10 9.6
2014-Jul-24 14:33N 49°22' W 123°57'9 9.1
2014-Jul-24 13:33N 49°28' W 124°08'8 8.4
2014-Jul-24 12:33N 49°33' W 124°19'8 8.3
2014-Jul-24 11:33N 49°37' W 124°29'8 8.0
2014-Jul-24 10:33N 49°42' W 124°39'8 8.0
2014-Jul-24 09:33N 49°47' W 124°49'8 8.1
2014-Jul-24 08:32N 49°52' W 124°59'8 8.0
2014-Jul-24 07:33N 49°57' W 125°08'10 8.8
2014-Jul-24 06:26N 50°05' W 125°17'46 6.4
2014-Jul-23 23:15N 50°29' W 126°18'6 8.9
2014-Jul-23 22:32N 50°30' W 126°28'11 8.6
2014-Jul-23 21:14N 50°33' W 126°45'6 8.8
2014-Jul-23 20:30N 50°39' W 126°49'8 8.4
2014-Jul-23 19:33N 50°43' W 126°60'9 9.4
2014-Jul-23 18:33N 50°48' W 127°13'10 9.5
2014-Jul-23 17:33N 50°54' W 127°24'10 9.6
2014-Jul-23 16:33N 51°00' W 127°36'9 8.5
2014-Jul-23 15:33N 51°06' W 127°45'18 8.8
2014-Jul-23 13:29N 51°22' W 127°59'187 8.5
2014-Jul-22 15:33N 54°08' W 130°24'9 8.6
2014-Jul-22 14:33N 54°15' W 130°32'9 9.0
2014-Jul-22 13:33N 54°24' W 130°38'10 9.1
2014-Jul-22 12:30N 54°33' W 130°43'  
2014-Jul-19 06:07N 58°15' W 135°21'4 7.5
2014-Jul-19 05:33N 58°19' W 135°24'1 0.1
2014-Jul-18 19:28N 58°20' W 135°26'5 5.2
2014-Jul-18 18:26N 58°15' W 135°29'  

Dump ship's entire track history